Time;durP1;ratioP1;P1;durP2;ratioP2;P2;SDS_P1;SDS_P2;PMS_P1;PMS_P2;Temp;Humidity;BMP_temperature;BMP_pressure;BME280_temperature;BME280_humidity;BME280_pressure;Samples;Min_cycle;Max_cycle;Signal;HPM_P1;HPM_P2
2023/10/06 00:00:19;0.00;0.00;0.62;0.00;0.00;0.62;2.90;1.97;;;26.50;30.40;;;;;;2278303;61;20607;-66
2023/10/06 00:03:05;0.00;0.00;0.62;0.00;0.00;0.62;3.10;2.07;;;26.50;30.40;;;;;;2272173;61;20432;-66
2023/10/06 00:05:52;0.00;0.00;0.62;0.00;0.00;0.62;2.57;1.50;;;26.50;30.40;;;;;;2280027;61;20363;-65
2023/10/06 00:08:40;0.00;0.00;0.62;0.00;0.00;0.62;2.93;1.73;;;26.50;30.50;;;;;;2273679;61;20366;-65
2023/10/06 00:11:29;0.00;0.00;0.62;0.00;0.00;0.62;2.27;1.53;;;26.50;30.40;;;;;;2277691;61;20430;-65
2023/10/06 00:14:38;0.00;0.00;0.62;0.00;0.00;0.62;3.00;1.83;;;26.50;30.40;;;;;;2277248;61;20394;-66
2023/10/06 00:17:28;0.00;0.00;0.62;0.00;0.00;0.62;3.67;2.50;;;26.50;30.40;;;;;;2277312;61;20387;-67
2023/10/06 00:20:24;0.00;0.00;0.62;0.00;0.00;0.62;3.40;2.00;;;26.50;30.40;;;;;;2277915;61;20715;-65
2023/10/06 00:23:13;0.00;0.00;0.62;0.00;0.00;0.62;3.20;1.53;;;26.50;30.40;;;;;;2277669;61;20355;-66
2023/10/06 00:25:59;0.00;0.00;0.62;0.00;0.00;0.62;2.73;1.90;;;26.50;30.40;;;;;;2280201;61;20379;-66
2023/10/06 00:28:46;0.00;0.00;0.62;0.00;0.00;0.62;3.37;1.83;;;26.50;30.40;;;;;;2277528;61;20364;-69
2023/10/06 00:31:33;0.00;0.00;0.62;0.00;0.00;0.62;2.70;1.70;;;26.50;30.40;;;;;;2277806;61;20379;-65
2023/10/06 00:34:21;0.00;0.00;0.62;0.00;0.00;0.62;4.07;1.90;;;26.40;30.30;;;;;;2278054;61;20367;-66
2023/10/06 00:37:11;0.00;0.00;0.62;0.00;0.00;0.62;3.27;2.27;;;26.50;30.40;;;;;;2277931;61;20409;-64
2023/10/06 00:39:56;0.00;0.00;0.62;0.00;0.00;0.62;3.60;1.60;;;26.50;30.40;;;;;;2277516;61;20368;-66
2023/10/06 00:42:41;0.00;0.00;0.62;0.00;0.00;0.62;2.63;1.93;;;26.40;30.30;;;;;;2274875;61;20447;-65
2023/10/06 00:45:26;0.00;0.00;0.62;0.00;0.00;0.62;2.53;2.00;;;26.50;30.40;;;;;;2274534;61;20375;-65
2023/10/06 00:48:15;0.00;0.00;0.62;0.00;0.00;0.62;2.90;1.73;;;26.40;30.30;;;;;;2277466;61;20355;-66
2023/10/06 00:51:02;0.00;0.00;0.62;0.00;0.00;0.62;2.30;1.70;;;26.40;30.30;;;;;;2348950;39;21386;31
2023/10/06 00:53:52;0.00;0.00;0.62;0.00;0.00;0.62;3.27;1.77;;;26.50;30.50;;;;;;2272603;61;20403;-63
2023/10/06 00:56:39;0.00;0.00;0.62;0.00;0.00;0.62;2.37;1.70;;;26.50;30.40;;;;;;2268009;61;20419;-65
2023/10/06 00:59:24;0.00;0.00;0.62;0.00;0.00;0.62;2.70;1.77;;;26.40;31.00;;;;;;2270033;61;20376;-70
2023/10/06 01:02:10;0.00;0.00;0.62;0.00;0.00;0.62;2.30;1.90;;;26.50;30.40;;;;;;2270825;61;20438;-64
2023/10/06 01:04:56;0.00;0.00;0.62;0.00;0.00;0.62;3.10;1.70;;;26.40;30.30;;;;;;2270713;61;20368;-67
2023/10/06 01:07:41;0.00;0.00;0.62;0.00;0.00;0.62;2.83;1.97;;;26.40;30.30;;;;;;2274224;61;20361;-66
2023/10/06 01:10:34;0.00;0.00;0.62;0.00;0.00;0.62;3.60;2.10;;;26.50;30.40;;;;;;2270916;61;20399;-65
2023/10/06 01:13:19;0.00;0.00;0.62;0.00;0.00;0.62;2.70;1.97;;;26.50;30.40;;;;;;2274404;61;20380;-66
2023/10/06 01:16:11;0.00;0.00;0.62;0.00;0.00;0.62;3.00;2.10;;;26.40;30.30;;;;;;2274205;61;20360;-65
2023/10/06 01:19:14;0.00;0.00;0.62;0.00;0.00;0.62;3.03;1.70;;;26.40;30.30;;;;;;2273790;61;20360;-64
2023/10/06 01:22:41;0.00;0.00;0.62;0.00;0.00;0.62;2.20;1.43;;;26.40;30.30;;;;;;2273551;61;20395;-66
2023/10/06 01:25:20;0.00;0.00;0.62;0.00;0.00;0.62;3.90;1.90;;;26.40;30.30;;;;;;2270910;61;20368;-66
2023/10/06 01:28:06;0.00;0.00;0.62;0.00;0.00;0.62;3.00;1.77;;;26.40;30.20;;;;;;2271128;61;20361;-65
2023/10/06 01:30:54;0.00;0.00;0.62;0.00;0.00;0.62;3.70;1.60;;;26.40;30.20;;;;;;2319772;40;20394;31
2023/10/06 01:33:40;0.00;0.00;0.62;0.00;0.00;0.62;2.60;2.00;;;26.40;30.20;;;;;;2267974;61;20361;-64
2023/10/06 01:36:26;0.00;0.00;0.62;0.00;0.00;0.62;2.37;1.70;;;26.40;30.20;;;;;;2258713;61;20428;-66
2023/10/06 01:39:17;0.00;0.00;0.62;0.00;0.00;0.62;3.07;1.90;;;26.40;30.30;;;;;;2335703;53;20377;-63
2023/10/06 01:42:17;0.00;0.00;0.62;0.00;0.00;0.62;3.50;1.97;;;26.40;30.20;;;;;;2272049;61;20421;-65
2023/10/06 01:45:13;0.00;0.00;0.62;0.00;0.00;0.62;3.63;1.90;;;26.40;30.20;;;;;;2273700;61;20396;-66
2023/10/06 01:51:11;0.00;0.00;0.62;0.00;0.00;0.62;4.10;2.10;;;26.40;30.20;;;;;;2264591;61;20679;-66
2023/10/06 01:53:56;0.00;0.00;0.62;0.00;0.00;0.62;3.03;1.50;;;26.40;30.20;;;;;;2273284;61;20360;-66
2023/10/06 01:56:42;0.00;0.00;0.62;0.00;0.00;0.62;2.70;1.70;;;26.40;30.20;;;;;;2270894;61;20520;-65
2023/10/06 01:59:29;0.00;0.00;0.62;0.00;0.00;0.62;2.90;2.10;;;26.40;30.20;;;;;;2273227;61;20410;-64
2023/10/06 02:02:23;0.00;0.00;0.62;0.00;0.00;0.62;2.13;1.53;;;26.40;30.20;;;;;;2457897;39;20443;31
2023/10/06 02:05:12;0.00;0.00;0.62;0.00;0.00;0.62;2.50;1.63;;;26.40;30.20;;;;;;2262048;61;20373;-63
2023/10/06 02:08:00;0.00;0.00;0.62;0.00;0.00;0.62;2.10;1.60;;;26.30;30.10;;;;;;2262802;61;20369;-62
2023/10/06 02:10:47;0.00;0.00;0.62;0.00;0.00;0.62;4.60;2.20;;;26.40;30.10;;;;;;2266180;61;20382;-64
2023/10/06 02:13:33;0.00;0.00;0.62;0.00;0.00;0.62;2.67;1.43;;;26.40;30.10;;;;;;2262936;61;20362;-64
2023/10/06 02:16:26;0.00;0.00;0.62;0.00;0.00;0.62;2.40;1.93;;;26.40;30.10;;;;;;2262726;61;20365;-62
2023/10/06 02:19:15;0.00;0.00;0.62;0.00;0.00;0.62;3.13;1.80;;;26.30;30.00;;;;;;2262267;61;20923;-64
2023/10/06 02:22:01;0.00;0.00;0.62;0.00;0.00;0.62;3.47;2.10;;;26.30;30.00;;;;;;2262641;61;20384;-64
2023/10/06 02:24:46;0.00;0.00;0.62;0.00;0.00;0.62;2.30;1.73;;;26.30;30.00;;;;;;2260095;61;20405;-63
2023/10/06 02:27:41;0.00;0.00;0.62;0.00;0.00;0.62;2.87;2.10;;;26.30;30.00;;;;;;2265527;61;20361;-63
2023/10/06 02:30:39;0.00;0.00;0.62;0.00;0.00;0.62;3.03;1.70;;;26.30;30.00;;;;;;2263069;61;20361;-64
2023/10/06 02:33:26;0.00;0.00;0.62;0.00;0.00;0.62;2.20;1.70;;;26.30;30.00;;;;;;2266280;61;20385;-64
2023/10/06 02:36:23;0.00;0.00;0.62;0.00;0.00;0.62;2.57;1.77;;;26.30;30.00;;;;;;2265350;61;20835;-63
2023/10/06 02:39:10;0.00;0.00;0.62;0.00;0.00;0.62;3.37;1.80;;;26.30;30.00;;;;;;2267550;61;20377;-63
2023/10/06 02:42:27;0.00;0.00;0.62;0.00;0.00;0.62;5.67;2.60;;;26.30;30.70;;;;;;2400485;39;20397;-65
2023/10/06 02:45:20;0.00;0.00;0.62;0.00;0.00;0.62;3.67;2.10;;;26.30;30.00;;;;;;2270092;61;20372;-65
2023/10/06 02:48:14;0.00;0.00;0.62;0.00;0.00;0.62;3.40;2.50;;;26.30;30.00;;;;;;2268032;61;20356;-70
2023/10/06 02:56:58;0.00;0.00;0.62;0.00;0.00;0.62;3.73;2.03;;;26.30;30.00;;;;;;2263173;61;20381;-64
2023/10/06 02:59:47;0.00;0.00;0.62;0.00;0.00;0.62;4.07;2.00;;;26.30;30.00;;;;;;2262779;61;20385;-64
2023/10/06 03:02:34;0.00;0.00;0.62;0.00;0.00;0.62;3.10;2.13;;;26.30;30.00;;;;;;2264804;61;20377;-65
2023/10/06 03:05:25;0.00;0.00;0.62;0.00;0.00;0.62;3.23;2.10;;;26.30;30.00;;;;;;2267685;61;20352;-65
2023/10/06 03:08:12;0.00;0.00;0.62;0.00;0.00;0.62;3.03;2.00;;;26.30;30.00;;;;;;2266942;61;20451;-64
2023/10/06 03:11:03;0.00;0.00;0.62;0.00;0.00;0.62;4.53;2.60;;;26.30;30.00;;;;;;2328365;40;20689;31
2023/10/06 03:13:53;0.00;0.00;0.62;0.00;0.00;0.62;2.80;2.27;;;26.30;30.00;;;;;;2263809;61;20448;-64
2023/10/06 03:16:43;0.00;0.00;0.62;0.00;0.00;0.62;3.30;2.03;;;26.30;30.00;;;;;;2262370;61;20410;-66
2023/10/06 03:19:32;0.00;0.00;0.62;0.00;0.00;0.62;3.23;2.50;;;26.30;30.00;;;;;;2258877;61;20620;-66
2023/10/06 03:22:19;0.00;0.00;0.62;0.00;0.00;0.62;4.50;2.27;;;26.30;30.00;;;;;;2263686;61;20707;-64
2023/10/06 03:25:15;0.00;0.00;0.62;0.00;0.00;0.62;4.13;2.33;;;26.30;30.00;;;;;;2261264;61;20346;-63
2023/10/06 03:28:03;0.00;0.00;0.62;0.00;0.00;0.62;3.63;2.30;;;26.20;29.90;;;;;;2263240;61;20365;-66
2023/10/06 03:30:49;0.00;0.00;0.62;0.00;0.00;0.62;3.83;2.20;;;26.30;30.00;;;;;;2263717;61;20437;-65
2023/10/06 03:33:35;0.00;0.00;0.62;0.00;0.00;0.62;4.10;2.33;;;26.20;29.90;;;;;;2263667;61;20370;-64
2023/10/06 03:36:45;0.00;0.00;0.62;0.00;0.00;0.62;3.10;2.13;;;26.30;30.00;;;;;;2266325;61;20438;-67
2023/10/06 03:39:38;0.00;0.00;0.62;0.00;0.00;0.62;2.97;2.10;;;26.30;30.00;;;;;;2262053;61;20371;-64
2023/10/06 03:42:27;0.00;0.00;0.62;0.00;0.00;0.62;3.70;2.00;;;26.20;29.90;;;;;;2259264;61;20378;-64
2023/10/06 03:45:32;0.00;0.00;0.62;0.00;0.00;0.62;4.00;2.23;;;26.20;29.90;;;;;;2259950;61;20367;-63
2023/10/06 03:48:19;0.00;0.00;0.62;0.00;0.00;0.62;2.60;2.27;;;26.20;29.90;;;;;;2259180;61;20447;-63
2023/10/06 03:51:09;0.00;0.00;0.62;0.00;0.00;0.62;2.60;2.10;;;26.20;30.50;;;;;;2331651;40;20380;31
2023/10/06 03:53:56;0.00;0.00;0.62;0.00;0.00;0.62;2.97;1.70;;;26.20;29.90;;;;;;2275077;61;20400;-64
2023/10/06 03:56:49;0.00;0.00;0.62;0.00;0.00;0.62;4.00;1.97;;;26.20;29.90;;;;;;2268106;61;20479;-64
2023/10/06 03:59:34;0.00;0.00;0.62;0.00;0.00;0.62;2.40;2.03;;;26.20;29.90;;;;;;2270487;61;20392;-63
2023/10/06 04:02:21;0.00;0.00;0.62;0.00;0.00;0.62;3.47;2.03;;;26.20;29.90;;;;;;2272997;61;20403;-64
2023/10/06 04:05:07;0.00;0.00;0.62;0.00;0.00;0.62;3.07;2.20;;;26.20;29.90;;;;;;2270676;61;20963;-64
2023/10/06 04:07:52;0.00;0.00;0.62;0.00;0.00;0.62;3.67;2.60;;;26.20;29.90;;;;;;2273797;61;20415;-63
2023/10/06 04:10:40;0.00;0.00;0.62;0.00;0.00;0.62;2.73;2.23;;;26.20;29.90;;;;;;2273923;61;20383;-63
2023/10/06 04:13:25;0.00;0.00;0.62;0.00;0.00;0.62;2.60;2.13;;;26.20;29.90;;;;;;2273200;61;20368;-64
2023/10/06 04:16:13;0.00;0.00;0.62;0.00;0.00;0.62;3.97;2.20;;;26.20;29.90;;;;;;2273950;61;20356;-65
2023/10/06 04:19:03;0.00;0.00;0.62;0.00;0.00;0.62;2.77;2.10;;;26.20;29.90;;;;;;2270655;61;20949;-66
2023/10/06 04:21:49;0.00;0.00;0.62;0.00;0.00;0.62;3.60;2.30;;;26.20;29.90;;;;;;2273652;61;20367;-65
2023/10/06 04:24:34;0.00;0.00;0.62;0.00;0.00;0.62;4.47;2.30;;;26.20;29.90;;;;;;2270726;61;20368;-65
2023/10/06 04:27:19;0.00;0.00;0.62;0.00;0.00;0.62;3.37;2.23;;;26.20;29.90;;;;;;2273946;61;20368;-63
2023/10/06 04:30:11;0.00;0.00;0.62;0.00;0.00;0.62;2.83;2.20;;;26.20;29.90;;;;;;2273409;61;20339;-63
2023/10/06 04:32:56;0.00;0.00;0.62;0.00;0.00;0.62;5.10;2.53;;;26.20;29.90;;;;;;2274486;61;20388;-64
2023/10/06 04:35:49;0.00;0.00;0.62;0.00;0.00;0.62;3.17;2.47;;;26.20;29.90;;;;;;2274285;61;20363;-65
2023/10/06 04:38:37;0.00;0.00;0.62;0.00;0.00;0.62;3.50;2.40;;;26.20;29.90;;;;;;2274003;61;20464;-65
2023/10/06 04:41:31;0.00;0.00;0.62;0.00;0.00;0.62;5.40;3.10;;;26.20;29.90;;;;;;2375931;39;21231;31
2023/10/06 04:44:17;0.00;0.00;0.62;0.00;0.00;0.62;3.70;2.70;;;26.20;29.90;;;;;;2261908;61;20990;-63
2023/10/06 04:47:08;0.00;0.00;0.62;0.00;0.00;0.62;3.70;2.53;;;26.20;29.90;;;;;;2268625;61;20354;-64
2023/10/06 04:49:53;0.00;0.00;0.62;0.00;0.00;0.62;4.70;2.80;;;26.20;29.90;;;;;;2268435;61;20410;-63
2023/10/06 04:52:46;0.00;0.00;0.62;0.00;0.00;0.62;3.73;3.33;;;26.20;29.90;;;;;;2262198;61;20434;-63
2023/10/06 04:55:32;0.00;0.00;0.62;0.00;0.00;0.62;4.60;3.07;;;26.20;29.80;;;;;;2261924;61;20363;-62
2023/10/06 04:58:18;0.00;0.00;0.62;0.00;0.00;0.62;4.17;3.00;;;26.20;30.00;;;;;;2262044;61;20406;-64
2023/10/06 05:01:03;0.00;0.00;0.62;0.00;0.00;0.62;3.57;3.13;;;26.20;29.90;;;;;;2265464;61;20367;-64
2023/10/06 05:03:48;0.00;0.00;0.62;0.00;0.00;0.62;5.00;3.67;;;26.20;29.90;;;;;;2263360;61;20379;-65
2023/10/06 05:06:32;0.00;0.00;0.62;0.00;0.00;0.62;6.20;2.97;;;26.20;29.90;;;;;;2263091;61;20362;-64
2023/10/06 05:09:18;0.00;0.00;0.62;0.00;0.00;0.62;4.07;3.40;;;26.20;29.80;;;;;;2262731;61;20905;-61
2023/10/06 05:15:26;0.00;0.00;0.62;0.00;0.00;0.62;6.10;3.93;;;26.10;29.80;;;;;;2268474;61;20446;-63
2023/10/06 05:18:18;0.00;0.00;0.62;0.00;0.00;0.62;6.03;3.70;;;26.10;29.80;;;;;;2263064;61;20394;-63
2023/10/06 05:21:27;0.00;0.00;0.62;0.00;0.00;0.62;4.55;3.40;;;26.10;29.80;;;;;;2331118;40;20870;31
2023/10/06 05:24:19;0.00;0.00;0.62;0.00;0.00;0.62;3.90;3.30;;;26.10;29.80;;;;;;2277409;61;20385;-63
2023/10/06 05:27:11;0.00;0.00;0.62;0.00;0.00;0.62;4.83;3.50;;;26.10;29.80;;;;;;2278632;61;20375;-63
2023/10/06 05:30:03;0.00;0.00;0.62;0.00;0.00;0.62;4.77;3.30;;;26.10;29.80;;;;;;2275653;61;20374;-66
2023/10/06 05:32:51;0.00;0.00;0.62;0.00;0.00;0.62;4.90;3.20;;;26.10;29.80;;;;;;2272001;61;20352;-63
2023/10/06 05:35:38;0.00;0.00;0.62;0.00;0.00;0.62;3.87;3.33;;;26.10;29.80;;;;;;2272374;61;20537;-62
2023/10/06 05:38:24;0.00;0.00;0.62;0.00;0.00;0.62;5.37;3.00;;;26.10;29.80;;;;;;2273952;61;20368;-63
2023/10/06 05:41:15;0.00;0.00;0.62;0.00;0.00;0.62;4.30;3.00;;;26.10;29.80;;;;;;2267783;61;20372;-64
2023/10/06 05:44:08;0.00;0.00;0.62;0.00;0.00;0.62;4.50;2.97;;;26.10;29.80;;;;;;2271161;61;20369;-64
2023/10/06 05:46:54;0.00;0.00;0.62;0.00;0.00;0.62;3.50;2.70;;;26.10;29.80;;;;;;2270868;61;20676;-61
2023/10/06 05:49:47;0.00;0.00;0.62;0.00;0.00;0.62;3.70;2.83;;;26.10;29.80;;;;;;2267681;61;20433;-66
2023/10/06 05:55:49;0.00;0.00;0.62;0.00;0.00;0.62;3.50;2.70;;;26.10;29.80;;;;;;2272569;61;20396;-64
2023/10/06 05:58:53;0.00;0.00;0.62;0.00;0.00;0.62;4.73;2.70;;;26.10;29.70;;;;;;2264864;61;20853;-62
2023/10/06 06:02:09;0.00;0.00;0.62;0.00;0.00;0.62;3.25;2.45;;;26.10;29.70;;;;;;2398070;39;20431;31
2023/10/06 06:05:15;0.00;0.00;0.62;0.00;0.00;0.62;4.90;3.20;;;26.00;29.70;;;;;;2263120;61;20408;-65
2023/10/06 06:08:01;0.00;0.00;0.62;0.00;0.00;0.62;3.67;2.23;;;26.00;29.70;;;;;;2263556;61;20410;-65
2023/10/06 06:10:49;0.00;0.00;0.62;0.00;0.00;0.62;3.30;2.40;;;26.00;29.70;;;;;;2266542;61;20454;-64
2023/10/06 06:13:38;0.00;0.00;0.62;0.00;0.00;0.62;4.20;2.50;;;26.00;29.70;;;;;;2263475;61;20366;-63
2023/10/06 06:16:25;0.00;0.00;0.62;0.00;0.00;0.62;4.20;2.27;;;26.00;29.70;;;;;;2266163;61;20350;-63
2023/10/06 06:19:12;0.00;0.00;0.62;0.00;0.00;0.62;3.90;2.50;;;26.00;29.70;;;;;;2265835;61;20413;-63
2023/10/06 06:21:58;0.00;0.00;0.62;0.00;0.00;0.62;3.57;2.50;;;26.00;29.70;;;;;;2265767;61;20445;-63
2023/10/06 06:24:43;0.00;0.00;0.62;0.00;0.00;0.62;3.57;2.40;;;26.00;29.70;;;;;;2256937;61;20426;-64
2023/10/06 06:27:30;0.00;0.00;0.62;0.00;0.00;0.62;3.50;2.37;;;26.00;29.70;;;;;;2262985;61;20362;-63
2023/10/06 06:30:18;0.00;0.00;0.62;0.00;0.00;0.62;3.80;2.10;;;26.00;29.70;;;;;;2266340;61;20365;-63
2023/10/06 06:33:04;0.00;0.00;0.62;0.00;0.00;0.62;2.93;2.47;;;26.00;29.70;;;;;;2265235;61;20369;-65
2023/10/06 06:35:50;0.00;0.00;0.62;0.00;0.00;0.62;5.27;2.27;;;26.00;29.70;;;;;;2266064;61;20361;-64
2023/10/06 06:38:39;0.00;0.00;0.62;0.00;0.00;0.62;3.20;2.20;;;26.00;30.10;;;;;;2266857;61;20393;-62
2023/10/06 06:41:24;0.00;0.00;0.62;0.00;0.00;0.62;2.83;2.27;;;26.00;29.70;;;;;;2270057;61;20385;-65
2023/10/06 06:44:09;0.00;0.00;0.62;0.00;0.00;0.62;2.90;1.87;;;26.00;29.70;;;;;;2269940;61;20364;-63
2023/10/06 06:46:55;0.00;0.00;0.62;0.00;0.00;0.62;3.17;2.23;;;26.00;29.70;;;;;;2267151;61;20429;-63
2023/10/06 06:49:40;0.00;0.00;0.62;0.00;0.00;0.62;3.50;1.93;;;26.00;29.70;;;;;;2266937;61;20365;-62
2023/10/06 06:52:25;0.00;0.00;0.62;0.00;0.00;0.62;3.40;2.30;;;26.00;29.70;;;;;;2267008;61;20412;-64
2023/10/06 06:55:13;0.00;0.00;0.62;0.00;0.00;0.62;3.40;2.00;;;26.00;29.70;;;;;;2269440;61;20391;-65
2023/10/06 06:58:00;0.00;0.00;0.62;0.00;0.00;0.62;2.67;1.97;;;26.00;29.70;;;;;;2269550;61;20806;-62
2023/10/06 07:00:48;0.00;0.00;0.62;0.00;0.00;0.62;3.90;2.60;;;26.00;29.70;;;;;;2310727;39;20471;31
2023/10/06 07:03:34;0.00;0.00;0.62;0.00;0.00;0.62;3.07;1.80;;;26.00;29.70;;;;;;2261359;61;20470;-64
2023/10/06 07:06:20;0.00;0.00;0.62;0.00;0.00;0.62;2.73;2.00;;;26.00;29.70;;;;;;2259629;61;20367;-63
2023/10/06 07:09:12;0.00;0.00;0.62;0.00;0.00;0.62;2.83;2.40;;;26.00;29.70;;;;;;2259738;61;20391;-63
2023/10/06 07:11:57;0.00;0.00;0.62;0.00;0.00;0.62;2.70;1.87;;;26.00;29.70;;;;;;2257474;61;20428;-64
2023/10/06 07:14:42;0.00;0.00;0.62;0.00;0.00;0.62;3.40;2.20;;;26.00;29.70;;;;;;2263639;61;20442;-64
2023/10/06 07:17:27;0.00;0.00;0.62;0.00;0.00;0.62;3.93;2.40;;;26.00;29.70;;;;;;2260009;61;20397;-63
2023/10/06 07:20:16;0.00;0.00;0.62;0.00;0.00;0.62;3.10;2.07;;;26.00;29.70;;;;;;2263379;61;20401;-64
2023/10/06 07:23:01;0.00;0.00;0.62;0.00;0.00;0.62;3.30;2.43;;;26.00;29.80;;;;;;2263159;61;20425;-63
2023/10/06 07:25:46;0.00;0.00;0.62;0.00;0.00;0.62;3.43;2.23;;;26.00;29.70;;;;;;2262826;61;20825;-63
2023/10/06 07:28:31;0.00;0.00;0.62;0.00;0.00;0.62;3.23;2.00;;;26.00;29.70;;;;;;2259122;61;20755;-67
2023/10/06 07:31:16;0.00;0.00;0.62;0.00;0.00;0.62;4.83;2.20;;;26.00;29.70;;;;;;2258751;61;20393;-65
2023/10/06 07:34:05;0.00;0.00;0.62;0.00;0.00;0.62;4.30;2.30;;;26.00;29.70;;;;;;2262469;61;20357;-64
2023/10/06 07:36:51;0.00;0.00;0.62;0.00;0.00;0.62;3.50;2.20;;;26.00;29.80;;;;;;2261166;61;20459;-64
2023/10/06 07:39:36;0.00;0.00;0.62;0.00;0.00;0.62;3.60;2.60;;;26.00;29.80;;;;;;2261266;61;20946;-64
2023/10/06 07:42:21;0.00;0.00;0.62;0.00;0.00;0.62;3.70;2.10;;;26.00;29.80;;;;;;2261705;61;20402;-69
2023/10/06 07:45:07;0.00;0.00;0.62;0.00;0.00;0.62;4.20;2.30;;;26.00;29.80;;;;;;2258725;61;20362;-63
2023/10/06 07:47:51;0.00;0.00;0.62;0.00;0.00;0.62;3.70;2.50;;;26.00;29.80;;;;;;2260658;61;20357;-65
2023/10/06 07:50:36;0.00;0.00;0.62;0.00;0.00;0.62;3.37;2.10;;;26.00;29.80;;;;;;2257832;61;20806;-66
2023/10/06 07:53:23;0.00;0.00;0.62;0.00;0.00;0.62;3.50;2.33;;;25.90;29.80;;;;;;2257806;61;20389;-64
2023/10/06 07:56:09;0.00;0.00;0.62;0.00;0.00;0.62;3.47;2.40;;;25.90;29.90;;;;;;2260659;61;20414;-64
2023/10/06 07:58:54;0.00;0.00;0.62;0.00;0.00;0.62;3.07;2.47;;;25.90;29.90;;;;;;2260336;61;20451;-62
2023/10/06 08:01:39;0.00;0.00;0.62;0.00;0.00;0.62;3.37;2.10;;;25.90;29.90;;;;;;2260451;61;20401;-64
2023/10/06 08:04:24;0.00;0.00;0.62;0.00;0.00;0.62;3.43;2.20;;;26.00;29.90;;;;;;2260531;61;20373;-64
2023/10/06 08:07:08;0.00;0.00;0.62;0.00;0.00;0.62;4.20;2.00;;;26.00;29.90;;;;;;2257129;61;20420;-65
2023/10/06 08:09:58;0.00;0.00;0.62;0.00;0.00;0.62;2.90;2.07;;;26.00;29.90;;;;;;2256394;61;20421;-64
2023/10/06 08:12:44;0.00;0.00;0.62;0.00;0.00;0.62;4.90;2.43;;;26.00;30.00;;;;;;2259918;61;20389;-64
2023/10/06 08:15:32;0.00;0.00;0.62;0.00;0.00;0.62;3.87;2.43;;;26.00;30.00;;;;;;2253775;61;20819;-62
2023/10/06 08:18:17;0.00;0.00;0.62;0.00;0.00;0.62;5.20;2.67;;;26.00;30.50;;;;;;2258848;61;20479;-64
2023/10/06 08:21:03;0.00;0.00;0.62;0.00;0.00;0.62;3.47;2.43;;;26.00;30.00;;;;;;2259693;61;20382;-63
2023/10/06 08:23:48;0.00;0.00;0.62;0.00;0.00;0.62;4.00;2.20;;;26.00;30.00;;;;;;2256563;61;20361;-65
2023/10/06 08:26:36;0.00;0.00;0.62;0.00;0.00;0.62;5.40;2.90;;;26.00;30.00;;;;;;2256357;61;20972;-65
2023/10/06 08:29:21;0.00;0.00;0.62;0.00;0.00;0.62;3.07;2.17;;;26.00;30.00;;;;;;2258749;61;20375;-64
2023/10/06 08:32:06;0.00;0.00;0.62;0.00;0.00;0.62;3.00;1.97;;;26.00;30.00;;;;;;2259173;61;20860;-66
2023/10/06 08:34:51;0.00;0.00;0.62;0.00;0.00;0.62;3.87;1.80;;;26.00;30.00;;;;;;2259279;61;20746;-63
2023/10/06 08:37:36;0.00;0.00;0.62;0.00;0.00;0.62;5.07;2.20;;;26.00;30.00;;;;;;2258766;61;20566;-64
2023/10/06 08:40:22;0.00;0.00;0.62;0.00;0.00;0.62;3.27;2.33;;;26.00;30.00;;;;;;2259104;61;20854;-65
2023/10/06 08:43:08;0.00;0.00;0.62;0.00;0.00;0.62;3.17;2.27;;;26.00;30.00;;;;;;2259417;61;20374;-63
2023/10/06 08:45:55;0.00;0.00;0.62;0.00;0.00;0.62;3.17;2.40;;;26.00;30.00;;;;;;2255773;61;20362;-64
2023/10/06 08:48:40;0.00;0.00;0.62;0.00;0.00;0.62;3.07;2.00;;;26.00;30.70;;;;;;2259186;61;20366;-65
2023/10/06 08:51:30;0.00;0.00;0.62;0.00;0.00;0.62;4.40;2.30;;;26.00;30.00;;;;;;2255887;61;20424;-64
2023/10/06 08:54:17;0.00;0.00;0.62;0.00;0.00;0.62;3.97;2.40;;;26.00;30.10;;;;;;2258696;61;20436;-66
2023/10/06 08:57:03;0.00;0.00;0.62;0.00;0.00;0.62;7.43;2.40;;;26.10;30.20;;;;;;2258954;61;20405;-66
2023/10/06 08:59:49;0.00;0.00;0.62;0.00;0.00;0.62;2.63;1.60;;;26.00;30.10;;;;;;2258759;61;20394;-67
2023/10/06 09:02:36;0.00;0.00;0.62;0.00;0.00;0.62;2.83;1.97;;;26.10;30.20;;;;;;2536381;39;20953;31
2023/10/06 09:05:22;0.00;0.00;0.62;0.00;0.00;0.62;3.23;2.10;;;26.00;30.10;;;;;;2260468;61;20432;-66
2023/10/06 09:08:08;0.00;0.00;0.62;0.00;0.00;0.62;4.50;2.33;;;26.10;30.30;;;;;;2257772;61;20389;-66
2023/10/06 09:10:56;0.00;0.00;0.62;0.00;0.00;0.62;2.40;1.60;;;26.10;30.20;;;;;;2259922;61;20382;-66
2023/10/06 09:13:41;0.00;0.00;0.62;0.00;0.00;0.62;2.93;1.87;;;26.10;30.20;;;;;;2263952;61;20406;-66
2023/10/06 09:16:47;0.00;0.00;0.62;0.00;0.00;0.62;3.17;1.60;;;26.10;30.20;;;;;;2263507;61;20376;-65
2023/10/06 09:19:47;0.00;0.00;0.62;0.00;0.00;0.62;6.10;2.30;;;26.10;30.30;;;;;;2265866;61;20452;-66
2023/10/06 09:22:44;0.00;0.00;0.62;0.00;0.00;0.62;2.73;1.90;;;26.10;30.30;;;;;;2265972;61;20824;-65
2023/10/06 09:25:42;0.00;0.00;0.62;0.00;0.00;0.62;3.13;2.07;;;26.10;30.30;;;;;;2266601;61;20361;-66
2023/10/06 09:28:27;0.00;0.00;0.62;0.00;0.00;0.62;3.93;2.30;;;26.10;30.30;;;;;;2266077;61;20852;-66
2023/10/06 09:31:12;0.00;0.00;0.62;0.00;0.00;0.62;2.90;1.87;;;26.10;30.30;;;;;;2266143;61;20403;-67
2023/10/06 09:33:59;0.00;0.00;0.62;0.00;0.00;0.62;3.03;1.77;;;26.10;30.30;;;;;;2266045;61;20834;-66
2023/10/06 09:36:43;0.00;0.00;0.62;0.00;0.00;0.62;4.37;1.70;;;26.20;30.30;;;;;;2265749;61;20364;-66
2023/10/06 09:39:32;0.00;0.00;0.62;0.00;0.00;0.62;2.80;1.60;;;26.20;30.30;;;;;;2263320;61;20993;-66
2023/10/06 09:45:05;0.00;0.00;0.62;0.00;0.00;0.62;3.47;1.90;;;26.10;30.20;;;;;;2267142;61;20876;-65
2023/10/06 09:47:56;0.00;0.00;0.62;0.00;0.00;0.62;3.63;1.70;;;26.20;30.30;;;;;;2265596;61;20887;-63
2023/10/06 09:50:46;0.00;0.00;0.62;0.00;0.00;0.62;3.60;1.83;;;26.20;30.30;;;;;;2266201;61;20421;-66
2023/10/06 09:53:30;0.00;0.00;0.62;0.00;0.00;0.62;2.70;1.73;;;26.20;30.30;;;;;;2269604;61;20867;-66
2023/10/06 09:56:17;0.00;0.00;0.62;0.00;0.00;0.62;2.60;1.87;;;26.20;30.30;;;;;;2269853;61;20382;-66
2023/10/06 09:59:07;0.00;0.00;0.62;0.00;0.00;0.62;3.23;1.53;;;26.20;30.30;;;;;;2269321;61;20378;-64
2023/10/06 10:01:53;0.00;0.00;0.62;0.00;0.00;0.62;3.10;1.70;;;26.20;30.30;;;;;;2269745;61;20383;-66
2023/10/06 10:04:38;0.00;0.00;0.62;0.00;0.00;0.62;4.47;1.93;;;26.20;30.30;;;;;;2266298;61;20867;-65
2023/10/06 10:07:26;0.00;0.00;0.62;0.00;0.00;0.62;2.77;1.53;;;26.20;30.20;;;;;;2269237;61;20366;-65
2023/10/06 10:10:11;0.00;0.00;0.62;0.00;0.00;0.62;2.93;1.93;;;26.20;30.20;;;;;;2265986;61;20781;-66
2023/10/06 10:13:31;0.00;0.00;0.62;0.00;0.00;0.62;2.70;1.80;;;26.20;30.20;;;;;;2266049;61;20366;-66
2023/10/06 10:16:45;0.00;0.00;0.62;0.00;0.00;0.62;4.10;1.70;;;26.20;30.20;;;;;;2269426;61;20371;-66
2023/10/06 10:19:30;0.00;0.00;0.62;0.00;0.00;0.62;2.23;1.30;;;26.20;30.30;;;;;;2265835;61;20351;-66
2023/10/06 10:22:16;0.00;0.00;0.62;0.00;0.00;0.62;2.77;1.87;;;26.20;30.20;;;;;;2269052;61;20960;-66
2023/10/06 10:25:05;0.00;0.00;0.62;0.00;0.00;0.62;2.87;1.70;;;26.20;30.20;;;;;;2269423;61;20451;-64
2023/10/06 10:28:14;0.00;0.00;0.62;0.00;0.00;0.62;3.00;1.70;;;26.20;30.20;;;;;;2268882;61;20360;-66
2023/10/06 10:31:00;0.00;0.00;0.62;0.00;0.00;0.62;3.80;1.90;;;26.20;30.20;;;;;;2269117;61;20927;-66
2023/10/06 10:33:48;0.00;0.00;0.62;0.00;0.00;0.62;3.93;2.13;;;26.20;30.20;;;;;;2269215;61;20429;-66
2023/10/06 10:36:33;0.00;0.00;0.62;0.00;0.00;0.62;4.63;2.00;;;26.20;30.10;;;;;;2268788;61;20375;-65
2023/10/06 10:39:19;0.00;0.00;0.62;0.00;0.00;0.62;2.57;1.83;;;26.20;30.10;;;;;;2270957;61;20370;-66
2023/10/06 10:42:05;0.00;0.00;0.62;0.00;0.00;0.62;3.73;1.73;;;26.20;30.10;;;;;;2273198;61;20785;-65
2023/10/06 10:45:30;0.00;0.00;0.62;0.00;0.00;0.62;2.93;1.47;;;26.20;30.10;;;;;;2272741;61;20409;-70
2023/10/06 10:48:17;0.00;0.00;0.62;0.00;0.00;0.62;5.57;1.80;;;26.30;30.10;;;;;;2272692;61;20767;-65
2023/10/06 10:51:10;0.00;0.00;0.62;0.00;0.00;0.62;3.23;1.70;;;26.30;30.10;;;;;;2272694;61;20530;-66
2023/10/06 10:53:55;0.00;0.00;0.62;0.00;0.00;0.62;2.57;1.40;;;26.30;30.00;;;;;;2273384;61;20488;-65
2023/10/06 10:56:43;0.00;0.00;0.62;0.00;0.00;0.62;3.00;1.87;;;26.30;30.00;;;;;;2273246;61;20367;-66
2023/10/06 11:03:03;0.00;0.00;0.62;0.00;0.00;0.62;2.23;1.43;;;26.30;30.00;;;;;;2273161;61;20922;-66
2023/10/06 11:05:53;0.00;0.00;0.62;0.00;0.00;0.62;2.33;1.53;;;26.30;30.00;;;;;;2272865;61;20423;-65
2023/10/06 11:08:41;0.00;0.00;0.62;0.00;0.00;0.62;3.00;1.47;;;26.30;30.00;;;;;;2272622;61;20354;-64
2023/10/06 11:11:25;0.00;0.00;0.62;0.00;0.00;0.62;3.83;1.97;;;26.30;30.00;;;;;;2272802;61;20418;-66
2023/10/06 11:14:11;0.00;0.00;0.62;0.00;0.00;0.62;2.70;1.50;;;26.30;30.00;;;;;;2273008;60;20361;-64
2023/10/06 11:17:02;0.00;0.00;0.62;0.00;0.00;0.62;2.60;1.70;;;26.30;30.00;;;;;;2273872;61;20361;-66
2023/10/06 11:19:58;0.00;0.00;0.62;0.00;0.00;0.62;2.70;1.90;;;26.30;30.00;;;;;;2273217;61;20358;-65
2023/10/06 11:23:00;0.00;0.00;0.62;0.00;0.00;0.62;3.40;1.53;;;26.30;30.00;;;;;;2273612;61;20401;-66
2023/10/06 11:25:50;0.00;0.00;0.62;0.00;0.00;0.62;3.30;1.87;;;26.30;30.00;;;;;;2273435;61;20394;-66
2023/10/06 11:28:44;0.00;0.00;0.62;0.00;0.00;0.62;2.13;1.37;;;26.30;30.00;;;;;;2272863;61;20361;-66
2023/10/06 11:31:30;0.00;0.00;0.62;0.00;0.00;0.62;2.30;1.57;;;26.30;30.00;;;;;;2273358;61;20377;-67